»·PEaware :: N242AV KBFL-KVCV

N242AV :: KBFL-KVCV

FLIGHT INFORMATION

Flight Status: Arrived
Operator: Privately registered:
United States
More flights under this callsign
Pilot: Alex A. (3534)
Aircraft: CESSNA 172 SKYHAWK
(C172)
More flights by this aircraft type
Origin: KBFL Meadows
United States
Destination: KVCV Socal Logistics
United States
More flights between these airports :: More routes between these airports
Route: +
File this flight plan on PilotEdge
Remarks: plz speak slowly
Altitude:
(Current/Filed)
5,000ft
Speed:
(Current/Filed)
115kts
Departed: 10-Oct-17 09:32 AM
Arrived: 10-Oct-17 10:38 AM
Distance/Time
Traveled:
97nm/1:06
Distance/Time
To Go:
Arrived

Flight Plot

Page will automatically refresh every two minutes.

Flight plan parsing failed; only flown route is shown


Map Options




Map Legend


Flown Route
Filed Route
Departure Airport
Arrival Airport
Navaid (VOR, NDB)
Fix

Horizontal Profiles

Position Reports

Time Latitude Longitude Heading Altitude Ground
Speed
10-Oct-17 09:15 35.435704 -119.052058 90 509ft 0kts
10-Oct-17 09:16 35.435704 -119.052058 90 509ft 0kts
10-Oct-17 09:17 35.435704 -119.052058 90 509ft 0kts
10-Oct-17 09:18 35.435704 -119.052058 90 509ft 0kts
10-Oct-17 09:19 35.435704 -119.052058 90 509ft 0kts
10-Oct-17 09:20 35.435704 -119.052058 90 509ft 0kts
10-Oct-17 09:21 35.435704 -119.052058 90 509ft 0kts
10-Oct-17 09:22 35.435704 -119.052058 90 509ft 0kts
10-Oct-17 09:23 35.435704 -119.052058 90 509ft 0kts
10-Oct-17 09:24 35.435704 -119.052058 90 509ft 0kts
10-Oct-17 09:25 35.435704 -119.052058 90 509ft 0kts
10-Oct-17 09:26 35.435704 -119.052058 90 509ft 0kts
10-Oct-17 09:27 35.435704 -119.052058 90 509ft 0kts
10-Oct-17 09:28 35.435704 -119.052058 90 509ft 0kts
10-Oct-17 09:29 35.435704 -119.052058 90 509ft 0kts
10-Oct-17 09:30 35.435569 -119.052022 280 509ft 7kts
10-Oct-17 09:30 35.434185 -119.054310 143 509ft 8kts
10-Oct-17 09:32 35.432163 -119.051885 132 509ft 18kts
10-Oct-17 09:33 35.427600 -119.046315 134 509ft 26kts
10-Oct-17 09:33 35.425998 -119.044578 183 509ft 3kts
10-Oct-17 09:35 35.425837 -119.044597 185 509ft 1kts
10-Oct-17 09:36 35.425513 -119.044978 263 509ft 10kts
10-Oct-17 09:36 35.428396 -119.049607 315 509ft 75kts
10-Oct-17 09:38 35.449319 -119.074826 347 977ft 105kts
10-Oct-17 09:38 35.453681 -119.056261 133 1271ft 97kts
10-Oct-17 09:39 35.434514 -119.032998 138 1623ft 99kts
10-Oct-17 09:40 35.407307 -119.026899 172 1874ft 102kts
10-Oct-17 09:41 35.379955 -119.030095 179 2407ft 92kts
10-Oct-17 09:42 35.357883 -119.032083 179 3004ft 85kts
10-Oct-17 09:43 35.335688 -119.029950 159 3680ft 78kts
10-Oct-17 09:44 35.315452 -119.022727 159 4355ft 73kts
10-Oct-17 09:45 35.296680 -119.016213 158 5016ft 67kts
10-Oct-17 09:46 35.279180 -119.010359 159 5557ft 74kts
10-Oct-17 09:47 35.258822 -118.996104 137 5947ft 94kts
10-Oct-17 09:48 35.233230 -118.982416 156 6269ft 104kts
10-Oct-17 09:49 35.205473 -118.969208 156 6484ft 113kts
10-Oct-17 09:50 35.175164 -118.956772 155 6611ft 115kts
10-Oct-17 09:51 35.146471 -118.945649 155 6616ft 120kts
10-Oct-17 09:52 35.115164 -118.933423 156 6615ft 121kts
10-Oct-17 09:53 35.083095 -118.921009 155 6616ft 120kts
10-Oct-17 09:54 35.057260 -118.910977 156 6614ft 120kts
10-Oct-17 09:55 35.025320 -118.898398 156 6615ft 121kts
10-Oct-17 09:56 34.993506 -118.885987 156 6623ft 121kts
10-Oct-17 09:57 34.960877 -118.873395 156 6642ft 124kts
10-Oct-17 09:58 34.928190 -118.860732 156 6641ft 123kts
10-Oct-17 09:59 34.895797 -118.848205 156 6641ft 122kts
10-Oct-17 10:00 34.866418 -118.836891 156 6644ft 120kts
10-Oct-17 10:01 34.834672 -118.824686 156 6641ft 120kts
10-Oct-17 10:02 34.802895 -118.812479 155 6667ft 120kts
10-Oct-17 10:03 34.786401 -118.779858 112 6639ft 114kts
10-Oct-17 10:04 34.775052 -118.744259 107 6641ft 112kts
10-Oct-17 10:05 34.764567 -118.708750 107 6641ft 111kts
10-Oct-17 10:06 34.754084 -118.673237 107 6641ft 111kts
10-Oct-17 10:07 34.743664 -118.637919 107 6641ft 111kts
10-Oct-17 10:08 34.733605 -118.602507 106 6643ft 110kts
10-Oct-17 10:09 34.723596 -118.564834 107 6617ft 121kts
10-Oct-17 10:10 34.713250 -118.525122 107 6616ft 124kts
10-Oct-17 10:11 34.702939 -118.485523 107 6616ft 125kts
10-Oct-17 10:12 34.692479 -118.445329 107 6615ft 125kts
10-Oct-17 10:13 34.682031 -118.405159 106 6615ft 124kts
10-Oct-17 10:14 34.671556 -118.364865 106 6615ft 124kts
10-Oct-17 10:15 34.662356 -118.329451 107 6615ft 124kts
10-Oct-17 10:16 34.652412 -118.291161 107 6615ft 124kts
10-Oct-17 10:17 34.641991 -118.251013 107 6615ft 124kts
10-Oct-17 10:18 34.631592 -118.210924 107 6615ft 124kts
10-Oct-17 10:19 34.621084 -118.170396 107 6588ft 125kts
10-Oct-17 10:20 34.610652 -118.130146 107 6588ft 125kts
10-Oct-17 10:21 34.600242 -118.089954 107 6588ft 124kts
10-Oct-17 10:22 34.589918 -118.050076 107 6522ft 131kts
10-Oct-17 10:23 34.581709 -118.007464 83 6131ft 128kts
10-Oct-17 10:24 34.583502 -117.963460 84 5125ft 129kts
10-Oct-17 10:25 34.581604 -117.922479 95 4712ft 117kts
10-Oct-17 10:26 34.578789 -117.885473 89 4580ft 101kts
10-Oct-17 10:27 34.577916 -117.852405 85 4640ft 99kts
10-Oct-17 10:28 34.577889 -117.815083 86 4618ft 121kts
10-Oct-17 10:29 34.577098 -117.772339 88 4579ft 131kts
10-Oct-17 10:30 34.572354 -117.729000 115 4434ft 134kts
10-Oct-17 10:31 34.572622 -117.686492 76 4428ft 127kts
10-Oct-17 10:32 34.580474 -117.644867 83 4301ft 127kts
10-Oct-17 10:33 34.581946 -117.602146 78 4173ft 127kts
10-Oct-17 10:34 34.584705 -117.559286 86 4112ft 125kts
10-Oct-17 10:35 34.586163 -117.517808 88 4032ft 123kts
10-Oct-17 10:36 34.583497 -117.476083 93 3890ft 125kts
10-Oct-17 10:37 34.581878 -117.438081 90 3822ft 103kts
10-Oct-17 10:38 34.587045 -117.405511 29 3584ft 102kts
10-Oct-17 10:39 34.614067 -117.402558 358 3637ft 102kts
10-Oct-17 10:40 34.634038 -117.392355 113 3379ft 97kts
10-Oct-17 10:41 34.614099 -117.386697 177 2886ft 54kts
10-Oct-17 10:42 34.605119 -117.386539 183 2886ft 28kts
10-Oct-17 10:43 34.598537 -117.385911 88 2886ft 3kts
10-Oct-17 10:44 34.597104 -117.384045 174 2886ft 12kts
10-Oct-17 10:45 34.594034 -117.382982 134 2886ft 16kts
10-Oct-17 10:46 34.589415 -117.377104 89 2886ft 13kts
10-Oct-17 10:47 34.591242 -117.373250 127 2886ft 17kts

Navigation Log

Ident Type
Flight plan parsing failed, navigation log unavailable